sensor_id;sensor_type;location;lat;lon;timestamp;P1;durP1;ratioP1;P2;durP2;ratioP2
75423;SDS011;64005;55.160;36.002;2023-10-19T00:07:31;4.10;;;2.10;;
75423;SDS011;64005;55.160;36.002;2023-10-19T00:09:59;4.32;;;2.13;;
75423;SDS011;64005;55.160;36.002;2023-10-19T00:12:42;6.95;;;1.92;;
75423;SDS011;64005;55.160;36.002;2023-10-19T00:18:19;3.03;;;1.58;;
75423;SDS011;64005;55.160;36.002;2023-10-19T00:20:56;5.05;;;1.77;;
75423;SDS011;64005;55.160;36.002;2023-10-19T00:26:24;3.00;;;1.70;;
75423;SDS011;64005;55.160;36.002;2023-10-19T00:28:55;4.53;;;1.67;;
75423;SDS011;64005;55.160;36.002;2023-10-19T00:31:22;3.53;;;1.70;;
75423;SDS011;64005;55.160;36.002;2023-10-19T00:33:50;3.45;;;1.58;;
75423;SDS011;64005;55.160;36.002;2023-10-19T00:36:18;5.18;;;1.80;;
75423;SDS011;64005;55.160;36.002;2023-10-19T00:38:46;3.40;;;1.77;;
75423;SDS011;64005;55.160;36.002;2023-10-19T00:41:20;2.95;;;1.75;;
75423;SDS011;64005;55.160;36.002;2023-10-19T00:43:49;3.83;;;1.90;;
75423;SDS011;64005;55.160;36.002;2023-10-19T00:46:31;4.53;;;1.95;;
75423;SDS011;64005;55.160;36.002;2023-10-19T00:51:41;4.95;;;1.75;;
75423;SDS011;64005;55.160;36.002;2023-10-19T00:54:20;3.60;;;2.15;;
75423;SDS011;64005;55.160;36.002;2023-10-19T00:56:58;11.63;;;2.25;;
75423;SDS011;64005;55.160;36.002;2023-10-19T01:05:20;3.08;;;1.17;;
75423;SDS011;64005;55.160;36.002;2023-10-19T01:07:49;4.35;;;1.52;;
75423;SDS011;64005;55.160;36.002;2023-10-19T01:10:22;3.05;;;1.20;;
75423;SDS011;64005;55.160;36.002;2023-10-19T01:12:54;4.03;;;1.67;;
75423;SDS011;64005;55.160;36.002;2023-10-19T01:15:24;4.35;;;1.95;;
75423;SDS011;64005;55.160;36.002;2023-10-19T01:17:56;3.08;;;1.50;;
75423;SDS011;64005;55.160;36.002;2023-10-19T01:20:25;3.25;;;1.33;;
75423;SDS011;64005;55.160;36.002;2023-10-19T01:23:14;6.28;;;1.90;;
75423;SDS011;64005;55.160;36.002;2023-10-19T01:25:49;3.20;;;1.65;;
75423;SDS011;64005;55.160;36.002;2023-10-19T01:28:26;3.20;;;1.50;;
75423;SDS011;64005;55.160;36.002;2023-10-19T01:31:07;5.13;;;2.00;;
75423;SDS011;64005;55.160;36.002;2023-10-19T01:33:39;2.78;;;1.30;;
75423;SDS011;64005;55.160;36.002;2023-10-19T01:36:07;3.85;;;1.55;;
75423;SDS011;64005;55.160;36.002;2023-10-19T01:41:35;2.85;;;1.38;;
75423;SDS011;64005;55.160;36.002;2023-10-19T01:44:01;4.35;;;1.60;;
75423;SDS011;64005;55.160;36.002;2023-10-19T01:46:32;4.07;;;2.13;;
75423;SDS011;64005;55.160;36.002;2023-10-19T01:51:38;3.50;;;1.33;;
75423;SDS011;64005;55.160;36.002;2023-10-19T01:54:13;5.30;;;2.03;;
75423;SDS011;64005;55.160;36.002;2023-10-19T01:56:42;3.92;;;1.60;;
75423;SDS011;64005;55.160;36.002;2023-10-19T02:02:16;6.28;;;1.90;;
75423;SDS011;64005;55.160;36.002;2023-10-19T02:04:45;2.97;;;1.38;;
75423;SDS011;64005;55.160;36.002;2023-10-19T02:07:15;4.68;;;1.90;;
75423;SDS011;64005;55.160;36.002;2023-10-19T02:09:57;3.05;;;1.17;;
75423;SDS011;64005;55.160;36.002;2023-10-19T02:15:00;3.53;;;1.67;;
75423;SDS011;64005;55.160;36.002;2023-10-19T02:17:30;4.30;;;1.75;;
75423;SDS011;64005;55.160;36.002;2023-10-19T02:19:57;4.25;;;2.20;;
75423;SDS011;64005;55.160;36.002;2023-10-19T02:22:23;5.35;;;2.15;;
75423;SDS011;64005;55.160;36.002;2023-10-19T02:28:22;4.18;;;1.80;;
75423;SDS011;64005;55.160;36.002;2023-10-19T02:30:56;4.38;;;1.45;;
75423;SDS011;64005;55.160;36.002;2023-10-19T02:36:43;3.70;;;2.00;;
75423;SDS011;64005;55.160;36.002;2023-10-19T02:39:18;2.95;;;1.38;;
75423;SDS011;64005;55.160;36.002;2023-10-19T02:44:55;2.67;;;1.30;;
75423;SDS011;64005;55.160;36.002;2023-10-19T02:47:33;2.72;;;1.23;;
75423;SDS011;64005;55.160;36.002;2023-10-19T02:50:02;2.72;;;1.30;;
75423;SDS011;64005;55.160;36.002;2023-10-19T02:52:51;4.97;;;1.70;;
75423;SDS011;64005;55.160;36.002;2023-10-19T02:55:19;4.88;;;2.03;;
75423;SDS011;64005;55.160;36.002;2023-10-19T02:57:48;2.90;;;1.23;;
75423;SDS011;64005;55.160;36.002;2023-10-19T03:00:17;3.50;;;1.60;;
75423;SDS011;64005;55.160;36.002;2023-10-19T03:02:46;6.40;;;1.80;;
75423;SDS011;64005;55.160;36.002;2023-10-19T03:05:12;3.33;;;1.35;;
75423;SDS011;64005;55.160;36.002;2023-10-19T03:07:40;5.10;;;2.13;;
75423;SDS011;64005;55.160;36.002;2023-10-19T03:10:09;2.75;;;1.50;;
75423;SDS011;64005;55.160;36.002;2023-10-19T03:12:48;4.57;;;1.48;;
75423;SDS011;64005;55.160;36.002;2023-10-19T03:15:16;2.88;;;1.38;;
75423;SDS011;64005;55.160;36.002;2023-10-19T03:17:46;4.22;;;1.85;;
75423;SDS011;64005;55.160;36.002;2023-10-19T03:20:12;2.38;;;1.08;;
75423;SDS011;64005;55.160;36.002;2023-10-19T03:22:42;2.50;;;1.15;;
75423;SDS011;64005;55.160;36.002;2023-10-19T03:25:08;4.00;;;1.23;;
75423;SDS011;64005;55.160;36.002;2023-10-19T03:28:10;2.92;;;1.08;;
75423;SDS011;64005;55.160;36.002;2023-10-19T03:30:46;2.42;;;1.13;;
75423;SDS011;64005;55.160;36.002;2023-10-19T03:33:15;3.42;;;1.23;;
75423;SDS011;64005;55.160;36.002;2023-10-19T03:35:43;4.60;;;1.83;;
75423;SDS011;64005;55.160;36.002;2023-10-19T03:38:10;3.65;;;1.80;;
75423;SDS011;64005;55.160;36.002;2023-10-19T03:40:42;3.55;;;1.55;;
75423;SDS011;64005;55.160;36.002;2023-10-19T03:43:12;7.60;;;1.20;;
75423;SDS011;64005;55.160;36.002;2023-10-19T03:45:48;3.40;;;1.20;;
75423;SDS011;64005;55.160;36.002;2023-10-19T03:48:18;3.35;;;1.35;;
75423;SDS011;64005;55.160;36.002;2023-10-19T03:51:04;4.38;;;1.63;;
75423;SDS011;64005;55.160;36.002;2023-10-19T03:56:48;2.97;;;1.20;;
75423;SDS011;64005;55.160;36.002;2023-10-19T03:59:15;3.42;;;1.55;;
75423;SDS011;64005;55.160;36.002;2023-10-19T04:01:50;6.82;;;1.38;;
75423;SDS011;64005;55.160;36.002;2023-10-19T04:04:17;2.70;;;1.02;;
75423;SDS011;64005;55.160;36.002;2023-10-19T04:06:46;3.50;;;1.60;;
75423;SDS011;64005;55.160;36.002;2023-10-19T04:09:14;1.50;;;0.90;;
75423;SDS011;64005;55.160;36.002;2023-10-19T04:11:44;3.40;;;1.63;;
75423;SDS011;64005;55.160;36.002;2023-10-19T04:14:32;3.88;;;1.75;;
75423;SDS011;64005;55.160;36.002;2023-10-19T04:17:01;3.38;;;0.85;;
75423;SDS011;64005;55.160;36.002;2023-10-19T04:21:58;3.45;;;0.70;;
75423;SDS011;64005;55.160;36.002;2023-10-19T04:24:25;3.72;;;1.73;;
75423;SDS011;64005;55.160;36.002;2023-10-19T04:26:52;3.85;;;1.42;;
75423;SDS011;64005;55.160;36.002;2023-10-19T04:29:21;3.50;;;1.65;;
75423;SDS011;64005;55.160;36.002;2023-10-19T04:31:52;2.55;;;1.23;;
75423;SDS011;64005;55.160;36.002;2023-10-19T04:34:23;3.67;;;2.00;;
75423;SDS011;64005;55.160;36.002;2023-10-19T04:39:43;2.88;;;1.42;;
75423;SDS011;64005;55.160;36.002;2023-10-19T04:42:10;6.90;;;2.72;;
75423;SDS011;64005;55.160;36.002;2023-10-19T04:44:37;4.45;;;1.27;;
75423;SDS011;64005;55.160;36.002;2023-10-19T04:49:52;2.88;;;1.15;;
75423;SDS011;64005;55.160;36.002;2023-10-19T04:52:32;2.78;;;1.13;;
75423;SDS011;64005;55.160;36.002;2023-10-19T05:07:56;6.40;;;1.40;;
75423;SDS011;64005;55.160;36.002;2023-10-19T05:10:24;5.50;;;2.22;;
75423;SDS011;64005;55.160;36.002;2023-10-19T05:12:52;6.95;;;2.55;;
75423;SDS011;64005;55.160;36.002;2023-10-19T05:15:20;6.82;;;1.88;;
75423;SDS011;64005;55.160;36.002;2023-10-19T05:17:47;3.72;;;2.00;;
75423;SDS011;64005;55.160;36.002;2023-10-19T05:20:14;4.90;;;1.92;;
75423;SDS011;64005;55.160;36.002;2023-10-19T05:25:36;5.63;;;2.15;;
75423;SDS011;64005;55.160;36.002;2023-10-19T05:28:11;2.72;;;1.10;;
75423;SDS011;64005;55.160;36.002;2023-10-19T05:30:38;1.88;;;0.75;;
75423;SDS011;64005;55.160;36.002;2023-10-19T05:33:05;3.72;;;1.60;;
75423;SDS011;64005;55.160;36.002;2023-10-19T05:35:32;4.32;;;1.70;;
75423;SDS011;64005;55.160;36.002;2023-10-19T05:38:05;2.72;;;1.45;;
75423;SDS011;64005;55.160;36.002;2023-10-19T05:40:33;5.13;;;2.83;;
75423;SDS011;64005;55.160;36.002;2023-10-19T05:43:02;5.22;;;1.63;;
75423;SDS011;64005;55.160;36.002;2023-10-19T05:45:30;2.72;;;1.33;;
75423;SDS011;64005;55.160;36.002;2023-10-19T05:48:00;3.28;;;1.33;;
75423;SDS011;64005;55.160;36.002;2023-10-19T05:50:29;3.47;;;1.33;;
75423;SDS011;64005;55.160;36.002;2023-10-19T05:52:56;3.97;;;1.38;;
75423;SDS011;64005;55.160;36.002;2023-10-19T05:55:23;2.97;;;1.25;;
75423;SDS011;64005;55.160;36.002;2023-10-19T05:57:50;2.47;;;0.95;;
75423;SDS011;64005;55.160;36.002;2023-10-19T06:00:18;3.00;;;1.10;;
75423;SDS011;64005;55.160;36.002;2023-10-19T06:02:53;2.35;;;0.90;;
75423;SDS011;64005;55.160;36.002;2023-10-19T06:05:20;2.10;;;0.90;;
75423;SDS011;64005;55.160;36.002;2023-10-19T06:07:48;3.05;;;1.40;;
75423;SDS011;64005;55.160;36.002;2023-10-19T06:10:17;2.85;;;0.93;;
75423;SDS011;64005;55.160;36.002;2023-10-19T06:12:45;3.38;;;1.45;;
75423;SDS011;64005;55.160;36.002;2023-10-19T06:15:15;3.95;;;1.55;;
75423;SDS011;64005;55.160;36.002;2023-10-19T06:17:44;4.10;;;1.55;;
75423;SDS011;64005;55.160;36.002;2023-10-19T06:20:13;2.38;;;1.00;;
75423;SDS011;64005;55.160;36.002;2023-10-19T06:22:49;3.15;;;1.55;;
75423;SDS011;64005;55.160;36.002;2023-10-19T06:25:17;2.08;;;0.73;;
75423;SDS011;64005;55.160;36.002;2023-10-19T06:31:38;2.38;;;0.75;;
75423;SDS011;64005;55.160;36.002;2023-10-19T06:34:06;2.70;;;1.10;;
75423;SDS011;64005;55.160;36.002;2023-10-19T06:36:47;1.80;;;0.70;;
75423;SDS011;64005;55.160;36.002;2023-10-19T06:39:16;4.30;;;1.40;;
75423;SDS011;64005;55.160;36.002;2023-10-19T06:44:40;2.47;;;1.10;;
75423;SDS011;64005;55.160;36.002;2023-10-19T06:50:09;2.25;;;1.02;;
75423;SDS011;64005;55.160;36.002;2023-10-19T06:52:37;1.33;;;0.38;;
75423;SDS011;64005;55.160;36.002;2023-10-19T06:55:06;2.53;;;1.00;;
75423;SDS011;64005;55.160;36.002;2023-10-19T07:10:48;1.63;;;0.82;;
75423;SDS011;64005;55.160;36.002;2023-10-19T07:13:16;2.17;;;0.60;;
75423;SDS011;64005;55.160;36.002;2023-10-19T07:15:46;1.60;;;0.60;;
75423;SDS011;64005;55.160;36.002;2023-10-19T07:21:14;2.42;;;1.08;;
75423;SDS011;64005;55.160;36.002;2023-10-19T07:23:59;0.90;;;0.38;;
75423;SDS011;64005;55.160;36.002;2023-10-19T07:29:44;1.80;;;0.70;;
75423;SDS011;64005;55.160;36.002;2023-10-19T07:32:12;1.85;;;0.80;;
75423;SDS011;64005;55.160;36.002;2023-10-19T07:34:42;1.45;;;0.57;;
75423;SDS011;64005;55.160;36.002;2023-10-19T07:37:10;0.73;;;0.30;;
75423;SDS011;64005;55.160;36.002;2023-10-19T07:52:40;1.52;;;0.50;;
75423;SDS011;64005;55.160;36.002;2023-10-19T07:57:50;2.40;;;0.68;;
75423;SDS011;64005;55.160;36.002;2023-10-19T08:00:18;0.95;;;0.45;;
75423;SDS011;64005;55.160;36.002;2023-10-19T08:02:46;1.00;;;0.43;;
75423;SDS011;64005;55.160;36.002;2023-10-19T08:05:14;0.28;;;0.17;;
75423;SDS011;64005;55.160;36.002;2023-10-19T08:07:45;0.60;;;0.25;;
75423;SDS011;64005;55.160;36.002;2023-10-19T08:10:13;0.73;;;0.32;;
75423;SDS011;64005;55.160;36.002;2023-10-19T08:12:42;0.30;;;0.30;;
75423;SDS011;64005;55.160;36.002;2023-10-19T08:17:41;1.45;;;0.50;;
75423;SDS011;64005;55.160;36.002;2023-10-19T08:20:10;0.82;;;0.40;;
75423;SDS011;64005;55.160;36.002;2023-10-19T08:22:42;0.38;;;0.20;;
75423;SDS011;64005;55.160;36.002;2023-10-19T08:25:13;4.72;;;0.40;;
75423;SDS011;64005;55.160;36.002;2023-10-19T08:30:50;0.70;;;0.28;;
75423;SDS011;64005;55.160;36.002;2023-10-19T08:33:25;0.22;;;0.22;;
75423;SDS011;64005;55.160;36.002;2023-10-19T08:35:55;1.35;;;0.30;;
75423;SDS011;64005;55.160;36.002;2023-10-19T08:38:27;0.82;;;0.40;;
75423;SDS011;64005;55.160;36.002;2023-10-19T08:40:55;0.20;;;0.10;;
75423;SDS011;64005;55.160;36.002;2023-10-19T08:46:14;0.05;;;0.05;;
75423;SDS011;64005;55.160;36.002;2023-10-19T08:52:22;0.17;;;0.08;;
75423;SDS011;64005;55.160;36.002;2023-10-19T08:54:51;0.20;;;0.17;;
75423;SDS011;64005;55.160;36.002;2023-10-19T08:57:20;0.22;;;0.10;;
75423;SDS011;64005;55.160;36.002;2023-10-19T08:59:48;0.95;;;0.35;;
75423;SDS011;64005;55.160;36.002;2023-10-19T09:05:48;0.35;;;0.20;;
75423;SDS011;64005;55.160;36.002;2023-10-19T09:08:16;0.85;;;0.38;;
75423;SDS011;64005;55.160;36.002;2023-10-19T09:10:45;0.73;;;0.20;;
75423;SDS011;64005;55.160;36.002;2023-10-19T09:15:50;0.95;;;0.35;;
75423;SDS011;64005;55.160;36.002;2023-10-19T09:18:21;1.38;;;0.40;;
75423;SDS011;64005;55.160;36.002;2023-10-19T09:24:18;1.55;;;0.60;;
75423;SDS011;64005;55.160;36.002;2023-10-19T09:26:46;0.38;;;0.20;;
75423;SDS011;64005;55.160;36.002;2023-10-19T09:29:16;1.35;;;0.43;;
75423;SDS011;64005;55.160;36.002;2023-10-19T09:34:34;0.75;;;0.22;;
75423;SDS011;64005;55.160;36.002;2023-10-19T09:37:04;5.68;;;0.70;;
75423;SDS011;64005;55.160;36.002;2023-10-19T09:39:31;1.00;;;0.43;;
75423;SDS011;64005;55.160;36.002;2023-10-19T09:42:01;0.95;;;0.25;;
75423;SDS011;64005;55.160;36.002;2023-10-19T09:44:33;2.42;;;0.82;;
75423;SDS011;64005;55.160;36.002;2023-10-19T09:47:09;0.82;;;0.40;;
75423;SDS011;64005;55.160;36.002;2023-10-19T09:49:40;1.13;;;0.40;;
75423;SDS011;64005;55.160;36.002;2023-10-19T09:52:08;2.65;;;0.60;;
75423;SDS011;64005;55.160;36.002;2023-10-19T09:54:46;1.63;;;0.70;;
75423;SDS011;64005;55.160;36.002;2023-10-19T09:57:21;1.92;;;0.60;;
75423;SDS011;64005;55.160;36.002;2023-10-19T09:59:56;1.63;;;0.60;;
75423;SDS011;64005;55.160;36.002;2023-10-19T10:02:39;2.50;;;0.68;;
75423;SDS011;64005;55.160;36.002;2023-10-19T10:08:35;1.83;;;0.60;;
75423;SDS011;64005;55.160;36.002;2023-10-19T10:13:46;0.50;;;0.25;;
75423;SDS011;64005;55.160;36.002;2023-10-19T10:16:16;0.82;;;0.47;;
75423;SDS011;64005;55.160;36.002;2023-10-19T10:18:49;1.85;;;0.70;;
75423;SDS011;64005;55.160;36.002;2023-10-19T10:21:18;1.90;;;0.50;;
75423;SDS011;64005;55.160;36.002;2023-10-19T10:23:47;4.43;;;0.60;;
75423;SDS011;64005;55.160;36.002;2023-10-19T10:26:16;1.38;;;0.50;;
75423;SDS011;64005;55.160;36.002;2023-10-19T10:28:47;1.95;;;0.28;;
75423;SDS011;64005;55.160;36.002;2023-10-19T10:34:45;1.45;;;0.40;;
75423;SDS011;64005;55.160;36.002;2023-10-19T10:37:24;4.22;;;0.80;;
75423;SDS011;64005;55.160;36.002;2023-10-19T10:39:52;2.38;;;0.57;;
75423;SDS011;64005;55.160;36.002;2023-10-19T10:42:34;0.68;;;0.38;;
75423;SDS011;64005;55.160;36.002;2023-10-19T10:45:01;1.15;;;0.60;;
75423;SDS011;64005;55.160;36.002;2023-10-19T10:47:30;1.08;;;0.40;;
75423;SDS011;64005;55.160;36.002;2023-10-19T10:50:12;0.65;;;0.30;;
75423;SDS011;64005;55.160;36.002;2023-10-19T10:52:53;1.35;;;0.38;;
75423;SDS011;64005;55.160;36.002;2023-10-19T10:55:23;0.95;;;0.40;;
75423;SDS011;64005;55.160;36.002;2023-10-19T11:00:43;1.08;;;0.43;;
75423;SDS011;64005;55.160;36.002;2023-10-19T11:03:12;0.50;;;0.30;;
75423;SDS011;64005;55.160;36.002;2023-10-19T11:05:50;1.10;;;0.38;;
75423;SDS011;64005;55.160;36.002;2023-10-19T11:08:17;1.38;;;0.60;;
75423;SDS011;64005;55.160;36.002;2023-10-19T11:10:46;0.98;;;0.43;;
75423;SDS011;64005;55.160;36.002;2023-10-19T11:13:22;2.80;;;0.65;;
75423;SDS011;64005;55.160;36.002;2023-10-19T11:15:50;2.60;;;0.40;;
75423;SDS011;64005;55.160;36.002;2023-10-19T11:18:28;2.75;;;0.77;;
75423;SDS011;64005;55.160;36.002;2023-10-19T11:20:57;0.90;;;0.40;;
75423;SDS011;64005;55.160;36.002;2023-10-19T11:26:25;0.65;;;0.20;;
75423;SDS011;64005;55.160;36.002;2023-10-19T11:28:56;0.93;;;0.38;;
75423;SDS011;64005;55.160;36.002;2023-10-19T11:34:41;1.65;;;0.45;;
75423;SDS011;64005;55.160;36.002;2023-10-19T11:37:11;1.90;;;0.30;;
75423;SDS011;64005;55.160;36.002;2023-10-19T11:39:41;2.78;;;0.45;;
75423;SDS011;64005;55.160;36.002;2023-10-19T11:42:08;1.23;;;0.35;;
75423;SDS011;64005;55.160;36.002;2023-10-19T11:44:35;1.17;;;0.52;;
75423;SDS011;64005;55.160;36.002;2023-10-19T11:47:03;0.98;;;0.40;;
75423;SDS011;64005;55.160;36.002;2023-10-19T11:49:30;0.63;;;0.20;;
75423;SDS011;64005;55.160;36.002;2023-10-19T11:52:11;0.20;;;0.15;;
75423;SDS011;64005;55.160;36.002;2023-10-19T11:54:38;0.70;;;0.20;;
75423;SDS011;64005;55.160;36.002;2023-10-19T11:59:41;0.25;;;0.13;;
75423;SDS011;64005;55.160;36.002;2023-10-19T12:02:09;1.45;;;0.30;;
75423;SDS011;64005;55.160;36.002;2023-10-19T12:04:37;0.68;;;0.30;;
75423;SDS011;64005;55.160;36.002;2023-10-19T12:07:04;0.22;;;0.10;;
75423;SDS011;64005;55.160;36.002;2023-10-19T12:09:32;1.40;;;0.10;;
75423;SDS011;64005;55.160;36.002;2023-10-19T12:12:01;0.45;;;0.20;;
75423;SDS011;64005;55.160;36.002;2023-10-19T12:14:31;0.35;;;0.20;;
75423;SDS011;64005;55.160;36.002;2023-10-19T12:17:07;0.68;;;0.20;;
75423;SDS011;64005;55.160;36.002;2023-10-19T12:19:40;0.57;;;0.10;;
75423;SDS011;64005;55.160;36.002;2023-10-19T12:22:07;0.63;;;0.25;;
75423;SDS011;64005;55.160;36.002;2023-10-19T12:24:36;0.25;;;0.10;;
75423;SDS011;64005;55.160;36.002;2023-10-19T12:27:04;0.13;;;0.08;;
75423;SDS011;64005;55.160;36.002;2023-10-19T12:29:33;0.00;;;0.00;;
75423;SDS011;64005;55.160;36.002;2023-10-19T12:35:02;0.55;;;0.20;;
75423;SDS011;64005;55.160;36.002;2023-10-19T12:37:41;0.20;;;0.10;;
75423;SDS011;64005;55.160;36.002;2023-10-19T12:40:15;0.17;;;0.10;;
75423;SDS011;64005;55.160;36.002;2023-10-19T12:42:53;0.17;;;0.10;;
75423;SDS011;64005;55.160;36.002;2023-10-19T12:45:21;0.82;;;0.35;;
75423;SDS011;64005;55.160;36.002;2023-10-19T12:47:48;0.93;;;0.38;;
75423;SDS011;64005;55.160;36.002;2023-10-19T12:50:24;0.30;;;0.20;;
75423;SDS011;64005;55.160;36.002;2023-10-19T12:52:53;0.38;;;0.20;;
75423;SDS011;64005;55.160;36.002;2023-10-19T12:55:32;1.08;;;0.35;;
75423;SDS011;64005;55.160;36.002;2023-10-19T12:58:00;0.95;;;0.30;;
75423;SDS011;64005;55.160;36.002;2023-10-19T13:00:32;0.60;;;0.32;;
75423;SDS011;64005;55.160;36.002;2023-10-19T13:03:09;0.90;;;0.35;;
75423;SDS011;64005;55.160;36.002;2023-10-19T13:05:40;0.35;;;0.20;;
75423;SDS011;64005;55.160;36.002;2023-10-19T13:08:24;0.20;;;0.10;;
75423;SDS011;64005;55.160;36.002;2023-10-19T13:10:54;0.45;;;0.20;;
75423;SDS011;64005;55.160;36.002;2023-10-19T13:13:23;0.43;;;0.25;;
75423;SDS011;64005;55.160;36.002;2023-10-19T13:15:51;0.15;;;0.08;;
75423;SDS011;64005;55.160;36.002;2023-10-19T13:21:10;0.00;;;0.00;;
75423;SDS011;64005;55.160;36.002;2023-10-19T13:23:47;0.10;;;0.10;;
75423;SDS011;64005;55.160;36.002;2023-10-19T13:26:15;1.13;;;0.47;;
75423;SDS011;64005;55.160;36.002;2023-10-19T13:36:43;0.50;;;0.20;;
75423;SDS011;64005;55.160;36.002;2023-10-19T13:39:12;1.38;;;0.60;;
75423;SDS011;64005;55.160;36.002;2023-10-19T13:46:54;0.17;;;0.10;;
75423;SDS011;64005;55.160;36.002;2023-10-19T13:53:15;0.15;;;0.00;;
75423;SDS011;64005;55.160;36.002;2023-10-19T13:55:50;0.17;;;0.08;;
75423;SDS011;64005;55.160;36.002;2023-10-19T13:58:25;1.40;;;0.10;;
75423;SDS011;64005;55.160;36.002;2023-10-19T14:00:52;3.42;;;0.22;;
75423;SDS011;64005;55.160;36.002;2023-10-19T14:03:21;0.22;;;0.08;;
75423;SDS011;64005;55.160;36.002;2023-10-19T14:05:48;0.45;;;0.05;;
75423;SDS011;64005;55.160;36.002;2023-10-19T14:08:16;0.00;;;0.00;;
75423;SDS011;64005;55.160;36.002;2023-10-19T14:13:36;0.00;;;0.00;;
75423;SDS011;64005;55.160;36.002;2023-10-19T14:19:00;0.22;;;0.00;;
75423;SDS011;64005;55.160;36.002;2023-10-19T14:21:29;0.10;;;0.10;;
75423;SDS011;64005;55.160;36.002;2023-10-19T14:24:00;0.00;;;0.00;;
75423;SDS011;64005;55.160;36.002;2023-10-19T14:31:46;0.20;;;0.10;;
75423;SDS011;64005;55.160;36.002;2023-10-19T14:34:14;0.00;;;0.00;;
75423;SDS011;64005;55.160;36.002;2023-10-19T14:42:36;0.00;;;0.00;;
75423;SDS011;64005;55.160;36.002;2023-10-19T14:45:05;0.10;;;0.00;;
75423;SDS011;64005;55.160;36.002;2023-10-19T14:47:35;0.57;;;0.20;;
75423;SDS011;64005;55.160;36.002;2023-10-19T14:52:55;0.08;;;0.00;;
75423;SDS011;64005;55.160;36.002;2023-10-19T14:55:23;0.05;;;0.00;;
75423;SDS011;64005;55.160;36.002;2023-10-19T15:00:50;0.52;;;0.15;;
75423;SDS011;64005;55.160;36.002;2023-10-19T15:03:34;0.70;;;0.28;;
75423;SDS011;64005;55.160;36.002;2023-10-19T15:11:58;5.60;;;2.22;;
75423;SDS011;64005;55.160;36.002;2023-10-19T15:17:37;0.00;;;0.00;;
75423;SDS011;64005;55.160;36.002;2023-10-19T15:20:05;0.63;;;0.15;;
75423;SDS011;64005;55.160;36.002;2023-10-19T15:22:36;2.10;;;0.32;;
75423;SDS011;64005;55.160;36.002;2023-10-19T15:25:03;1.17;;;0.17;;
75423;SDS011;64005;55.160;36.002;2023-10-19T15:27:32;0.00;;;0.00;;
75423;SDS011;64005;55.160;36.002;2023-10-19T15:30:00;0.20;;;0.10;;
75423;SDS011;64005;55.160;36.002;2023-10-19T15:32:29;0.50;;;0.10;;
75423;SDS011;64005;55.160;36.002;2023-10-19T15:34:56;1.63;;;0.60;;
75423;SDS011;64005;55.160;36.002;2023-10-19T15:37:24;3.38;;;1.25;;
75423;SDS011;64005;55.160;36.002;2023-10-19T15:39:52;2.22;;;1.13;;
75423;SDS011;64005;55.160;36.002;2023-10-19T15:42:20;1.00;;;0.38;;
75423;SDS011;64005;55.160;36.002;2023-10-19T15:44:47;0.90;;;0.38;;
75423;SDS011;64005;55.160;36.002;2023-10-19T15:47:15;4.32;;;1.25;;
75423;SDS011;64005;55.160;36.002;2023-10-19T15:49:46;2.65;;;0.95;;
75423;SDS011;64005;55.160;36.002;2023-10-19T15:54:50;0.30;;;0.10;;
75423;SDS011;64005;55.160;36.002;2023-10-19T15:57:19;0.00;;;0.00;;
75423;SDS011;64005;55.160;36.002;2023-10-19T15:59:47;0.65;;;0.22;;
75423;SDS011;64005;55.160;36.002;2023-10-19T16:02:23;0.00;;;0.00;;
75423;SDS011;64005;55.160;36.002;2023-10-19T16:07:34;0.00;;;0.00;;
75423;SDS011;64005;55.160;36.002;2023-10-19T16:10:04;0.17;;;0.10;;
75423;SDS011;64005;55.160;36.002;2023-10-19T16:12:40;0.00;;;0.00;;
75423;SDS011;64005;55.160;36.002;2023-10-19T16:15:08;0.20;;;0.03;;
75423;SDS011;64005;55.160;36.002;2023-10-19T16:17:36;0.00;;;0.00;;
75423;SDS011;64005;55.160;36.002;2023-10-19T16:20:04;0.00;;;0.00;;
75423;SDS011;64005;55.160;36.002;2023-10-19T16:22:33;0.00;;;0.00;;
75423;SDS011;64005;55.160;36.002;2023-10-19T16:25:00;0.10;;;0.10;;
75423;SDS011;64005;55.160;36.002;2023-10-19T16:31:11;0.22;;;0.05;;
75423;SDS011;64005;55.160;36.002;2023-10-19T16:33:38;0.20;;;0.10;;
75423;SDS011;64005;55.160;36.002;2023-10-19T16:36:08;0.32;;;0.08;;
75423;SDS011;64005;55.160;36.002;2023-10-19T16:38:35;0.20;;;0.00;;
75423;SDS011;64005;55.160;36.002;2023-10-19T16:41:02;0.30;;;0.20;;
75423;SDS011;64005;55.160;36.002;2023-10-19T16:43:32;0.00;;;0.00;;
75423;SDS011;64005;55.160;36.002;2023-10-19T16:45:59;0.10;;;0.03;;
75423;SDS011;64005;55.160;36.002;2023-10-19T16:48:27;0.35;;;0.10;;
75423;SDS011;64005;55.160;36.002;2023-10-19T16:50:59;0.00;;;0.00;;
75423;SDS011;64005;55.160;36.002;2023-10-19T16:53:26;0.55;;;0.13;;
75423;SDS011;64005;55.160;36.002;2023-10-19T16:55:56;0.45;;;0.10;;
75423;SDS011;64005;55.160;36.002;2023-10-19T16:58:24;0.05;;;0.00;;
75423;SDS011;64005;55.160;36.002;2023-10-19T17:00:51;0.55;;;0.20;;
75423;SDS011;64005;55.160;36.002;2023-10-19T17:06:09;0.20;;;0.13;;
75423;SDS011;64005;55.160;36.002;2023-10-19T17:08:53;0.30;;;0.10;;
75423;SDS011;64005;55.160;36.002;2023-10-19T17:18:25;0.00;;;0.00;;
75423;SDS011;64005;55.160;36.002;2023-10-19T17:21:04;0.22;;;0.22;;
75423;SDS011;64005;55.160;36.002;2023-10-19T17:23:32;0.15;;;0.10;;
75423;SDS011;64005;55.160;36.002;2023-10-19T17:32:11;0.00;;;0.00;;
75423;SDS011;64005;55.160;36.002;2023-10-19T17:34:38;0.43;;;0.20;;
75423;SDS011;64005;55.160;36.002;2023-10-19T17:37:06;0.30;;;0.10;;
75423;SDS011;64005;55.160;36.002;2023-10-19T17:39:33;0.00;;;0.00;;
75423;SDS011;64005;55.160;36.002;2023-10-19T17:42:00;0.00;;;0.00;;
75423;SDS011;64005;55.160;36.002;2023-10-19T17:50:08;0.20;;;0.00;;
75423;SDS011;64005;55.160;36.002;2023-10-19T17:52:51;0.32;;;0.10;;
75423;SDS011;64005;55.160;36.002;2023-10-19T17:55:25;0.30;;;0.10;;
75423;SDS011;64005;55.160;36.002;2023-10-19T17:57:54;0.00;;;0.00;;
75423;SDS011;64005;55.160;36.002;2023-10-19T18:00:22;0.25;;;0.10;;
75423;SDS011;64005;55.160;36.002;2023-10-19T18:20:45;0.47;;;0.13;;
75423;SDS011;64005;55.160;36.002;2023-10-19T18:23:13;0.52;;;0.10;;
75423;SDS011;64005;55.160;36.002;2023-10-19T18:29:21;0.13;;;0.08;;
75423;SDS011;64005;55.160;36.002;2023-10-19T18:31:49;0.35;;;0.10;;
75423;SDS011;64005;55.160;36.002;2023-10-19T18:34:16;0.00;;;0.00;;
75423;SDS011;64005;55.160;36.002;2023-10-19T18:36:46;0.03;;;0.00;;
75423;SDS011;64005;55.160;36.002;2023-10-19T18:45:35;0.28;;;0.22;;
75423;SDS011;64005;55.160;36.002;2023-10-19T18:48:02;0.03;;;0.03;;
75423;SDS011;64005;55.160;36.002;2023-10-19T18:50:39;0.00;;;0.00;;
75423;SDS011;64005;55.160;36.002;2023-10-19T18:53:08;0.03;;;0.03;;
75423;SDS011;64005;55.160;36.002;2023-10-19T18:55:35;0.30;;;0.10;;
75423;SDS011;64005;55.160;36.002;2023-10-19T18:58:02;8.00;;;0.40;;
75423;SDS011;64005;55.160;36.002;2023-10-19T19:00:50;0.10;;;0.10;;
75423;SDS011;64005;55.160;36.002;2023-10-19T19:03:19;0.50;;;0.20;;
75423;SDS011;64005;55.160;36.002;2023-10-19T19:05:46;0.10;;;0.00;;
75423;SDS011;64005;55.160;36.002;2023-10-19T19:08:17;0.05;;;0.00;;
75423;SDS011;64005;55.160;36.002;2023-10-19T19:10:44;0.22;;;0.10;;
75423;SDS011;64005;55.160;36.002;2023-10-19T19:13:18;0.30;;;0.10;;
75423;SDS011;64005;55.160;36.002;2023-10-19T19:15:46;0.00;;;0.00;;
75423;SDS011;64005;55.160;36.002;2023-10-19T19:18:29;0.08;;;0.08;;
75423;SDS011;64005;55.160;36.002;2023-10-19T19:24:16;0.00;;;0.00;;
75423;SDS011;64005;55.160;36.002;2023-10-19T19:26:43;0.38;;;0.15;;
75423;SDS011;64005;55.160;36.002;2023-10-19T19:29:23;0.13;;;0.00;;